Time;durP1;ratioP1;P1;durP2;ratioP2;P2;SDS_P1;SDS_P2;PMS_P1;PMS_P2;Temp;Humidity;BMP_temperature;BMP_pressure;BME280_temperature;BME280_humidity;BME280_pressure;Samples;Min_cycle;Max_cycle;Signal;HPM_P1;HPM_P2
2021/08/01 00:00:43;;;;;;;29.67;11.02;;;;;;;15.76;83.99;101006.84;4959652;28;20046;-47
2021/08/01 00:03:09;;;;;;;31.23;11.95;;;;;;;15.71;83.96;100999.88;4955748;28;20039;-47
2021/08/01 00:05:34;;;;;;;27.90;10.80;;;;;;;15.70;83.82;101004.25;4959261;28;20048;-46
2021/08/01 00:07:59;;;;;;;35.50;12.25;;;;;;;15.69;83.98;101004.25;4956793;28;20489;-49
2021/08/01 00:10:25;;;;;;;24.98;10.02;;;;;;;15.71;83.91;100998.13;4960329;28;20030;-48
2021/08/01 00:12:51;;;;;;;26.65;10.68;;;;;;;15.68;83.85;100995.50;4953714;28;20070;-49
2021/08/01 00:15:16;;;;;;;26.10;10.85;;;;;;;15.65;84.02;101002.53;4955408;28;20030;-52
2021/08/01 00:17:42;;;;;;;36.55;12.55;;;;;;;15.63;84.35;101001.66;4976127;28;20066;-48
2021/08/01 00:20:08;;;;;;;20.50;9.57;;;;;;;15.64;83.97;100992.88;4961015;28;20049;-46
2021/08/01 00:22:33;;;;;;;31.38;11.25;;;;;;;15.62;83.95;101000.78;4952833;28;20023;-48
2021/08/01 00:25:00;;;;;;;31.17;10.35;;;;;;;15.63;83.88;101001.66;4959337;28;20058;-50
2021/08/01 00:27:25;;;;;;;26.42;11.35;;;;;;;15.68;83.69;100990.22;4954824;28;20034;-48
2021/08/01 00:29:53;;;;;;;30.20;9.70;;;;;;;15.72;83.43;100989.34;4958293;28;20038;-47
2021/08/01 00:32:18;;;;;;;24.58;10.13;;;;;;;15.67;83.71;100995.53;4952900;28;20908;-47
2021/08/01 00:34:43;;;;;;;23.73;9.20;;;;;;;15.59;83.92;100989.41;4959047;28;20049;-46
2021/08/01 00:37:09;;;;;;;18.25;8.10;;;;;;;15.58;83.68;100985.91;4959578;28;21110;-51
2021/08/01 00:39:34;;;;;;;26.40;9.23;;;;;;;15.56;84.01;100987.66;4957828;28;20558;-46
2021/08/01 00:41:59;;;;;;;25.73;9.02;;;;;;;15.55;83.69;100988.56;4956007;28;20265;-47
2021/08/01 00:44:25;;;;;;;21.33;8.13;;;;;;;15.53;83.70;100990.31;4957426;28;20110;-47
2021/08/01 00:46:50;;;;;;;23.55;9.13;;;;;;;15.51;83.76;100985.91;4958082;28;20364;-47
2021/08/01 00:49:16;;;;;;;21.25;9.27;;;;;;;15.47;83.88;100994.69;4937456;28;20050;-52
2021/08/01 00:51:42;;;;;;;18.05;7.78;;;;;;;15.46;83.63;100991.19;4960571;28;20105;-48
2021/08/01 00:54:07;;;;;;;21.45;8.23;;;;;;;15.43;84.17;100991.19;4951275;28;20145;-49
2021/08/01 00:56:32;;;;;;;17.25;7.90;;;;;;;15.43;83.79;100992.06;4958841;28;20030;-47
2021/08/01 00:58:58;;;;;;;19.02;8.18;;;;;;;15.47;83.88;100990.31;4954048;28;20031;-48
2021/08/01 01:01:34;;;;;;;15.55;8.00;;;;;;;15.48;83.87;100992.06;4954530;28;20031;-47
2021/08/01 01:04:15;;;;;;;17.30;7.80;;;;;;;15.44;83.81;100996.44;4968440;28;20027;-48
2021/08/01 01:07:17;;;;;;;19.10;6.95;;;;;;;15.43;83.87;100975.44;4956981;28;20123;-48
2021/08/01 01:09:52;;;;;;;16.92;7.03;;;;;;;15.42;83.95;100976.34;4951288;28;20480;-47
2021/08/01 01:12:20;;;;;;;14.23;6.68;;;;;;;15.45;84.09;100984.19;4954069;28;20035;-46
2021/08/01 01:14:48;;;;;;;17.52;7.10;;;;;;;15.41;84.10;100980.72;4954010;28;20034;-51
2021/08/01 01:17:16;;;;;;;17.42;7.03;;;;;;;15.41;84.29;100975.47;4951240;28;20395;-49
2021/08/01 01:20:04;;;;;;;17.60;7.90;;;;;;;15.39;84.20;100971.09;4947470;28;20035;-47
2021/08/01 01:22:54;;;;;;;18.50;6.93;;;;;;;15.23;84.71;100967.66;4952685;28;20102;-48
2021/08/01 01:25:25;;;;;;;20.40;7.53;;;;;;;15.07;85.20;100967.72;4954712;28;20039;-47
2021/08/01 01:28:01;;;;;;;23.00;8.45;;;;;;;15.12;85.61;100965.97;4951661;28;20483;-46
2021/08/01 01:30:29;;;;;;;26.50;9.32;;;;;;;15.11;86.23;100966.84;4951513;28;20019;-49
2021/08/01 01:33:03;;;;;;;23.55;9.18;;;;;;;15.36;85.41;100971.13;4974397;28;20037;-47
2021/08/01 01:35:31;;;;;;;29.50;9.23;;;;;;;15.47;85.23;100969.31;4953762;28;20430;-47
2021/08/01 01:38:00;;;;;;;27.55;8.23;;;;;;;15.58;85.23;100969.28;4955003;28;20551;-47
2021/08/01 01:40:25;;;;;;;34.92;9.38;;;;;;;15.53;85.28;100963.19;4957285;28;20027;-47
2021/08/01 01:42:52;;;;;;;23.35;9.00;;;;;;;15.53;85.82;100966.69;4954519;28;20035;-48
2021/08/01 01:45:18;;;;;;;25.40;8.80;;;;;;;15.54;85.63;100964.94;4950426;28;20031;-46
2021/08/01 01:47:49;;;;;;;20.35;7.15;;;;;;;15.47;85.96;100968.44;4955459;28;20026;-48
2021/08/01 01:50:19;;;;;;;27.30;9.57;;;;;;;15.35;86.30;100969.38;4952443;28;20049;-49
2021/08/01 01:52:48;;;;;;;25.42;9.20;;;;;;;15.53;86.19;100968.44;4955912;28;20928;-47
2021/08/01 01:55:19;;;;;;;28.88;9.85;;;;;;;15.47;86.58;100961.41;4953136;28;20027;-50
2021/08/01 01:57:45;;;;;;;29.17;8.77;;;;;;;15.61;86.14;100959.63;4951814;28;20034;-48
2021/08/01 02:00:11;;;;;;;28.02;9.27;;;;;;;15.66;85.95;100957.84;4955782;28;20023;-50
2021/08/01 02:02:36;;;;;;;19.92;7.68;;;;;;;15.71;85.65;100953.44;4955209;28;20058;-47
2021/08/01 02:05:03;;;;;;;17.23;7.13;;;;;;;15.66;85.80;100943.84;4956136;28;20039;-48
2021/08/01 02:07:30;;;;;;;25.63;9.90;;;;;;;15.69;85.74;100942.03;4953784;28;20035;-47
2021/08/01 02:10:01;;;;;;;21.80;8.52;;;;;;;15.74;85.32;100950.75;4957021;28;20049;-47
2021/08/01 02:12:57;;;;;;;23.33;8.75;;;;;;;15.70;85.16;100941.16;4957766;28;20367;-50
2021/08/01 02:15:34;;;;;;;25.40;8.75;;;;;;;15.67;85.47;100943.84;4956448;28;20063;-46
2021/08/01 02:18:04;;;;;;;28.02;9.15;;;;;;;15.57;86.26;100950.00;4956325;28;20129;-48
2021/08/01 02:20:34;;;;;;;26.95;8.93;;;;;;;15.76;85.50;100942.88;4958519;28;20034;-49
2021/08/01 02:22:59;;;;;;;25.80;8.70;;;;;;;15.85;85.44;100942.84;4956993;28;20557;-47
2021/08/01 02:25:27;;;;;;;22.77;9.10;;;;;;;15.85;85.59;100952.47;4951815;28;20050;-47
2021/08/01 02:27:53;;;;;;;29.40;9.45;;;;;;;15.92;85.31;100947.13;4974743;28;20072;-47
2021/08/01 02:30:18;;;;;;;25.02;8.90;;;;;;;16.10;84.65;100946.16;4953677;28;20031;-48
2021/08/01 02:32:45;;;;;;;28.98;8.68;;;;;;;16.15;84.54;100944.34;4970928;28;20030;-48
2021/08/01 02:35:11;;;;;;;28.98;9.27;;;;;;;16.17;84.16;100948.69;4974016;28;20030;-48
2021/08/01 02:37:37;;;;;;;31.42;9.13;;;;;;;16.22;84.33;100949.53;4952514;28;20034;-54
2021/08/01 02:40:03;;;;;;;39.47;11.27;;;;;;;16.15;84.54;100950.50;4960430;28;20035;-48
2021/08/01 02:42:29;;;;;;;38.67;11.57;;;;;;;16.14;84.56;100943.47;4951548;28;20498;-49
2021/08/01 02:44:57;;;;;;;28.65;10.43;;;;;;;16.12;84.64;100939.09;4962170;28;20223;-48
2021/08/01 02:47:24;;;;;;;42.20;12.00;;;;;;;16.05;84.72;100945.28;4956963;28;20118;-48
2021/08/01 02:49:50;;;;;;;33.30;10.60;;;;;;;15.85;85.63;100945.47;4959333;28;20058;-47
2021/08/01 02:52:20;;;;;;;35.70;11.48;;;;;;;15.77;85.68;100942.88;4956273;28;20050;-48
2021/08/01 02:54:49;;;;;;;35.28;12.40;;;;;;;15.60;85.79;100941.25;4940329;28;20042;-50
2021/08/01 02:57:15;;;;;;;35.78;12.38;;;;;;;15.75;85.28;100941.13;4958877;28;20031;-51
2021/08/01 02:59:42;;;;;;;43.45;14.38;;;;;;;15.82;84.90;100942.84;4942876;28;20498;-51
2021/08/01 03:02:09;;;;;;;38.63;13.50;;;;;;;15.83;84.73;100931.44;4969336;28;20031;-48
2021/08/01 03:04:38;;;;;;;43.00;14.27;;;;;;;15.85;84.68;100934.06;4957818;28;20031;-51
2021/08/01 03:07:06;;;;;;;49.88;13.98;;;;;;;15.82;84.46;100935.81;4957116;28;20353;-47
2021/08/01 03:09:32;;;;;;;43.38;14.20;;;;;;;15.79;84.52;100932.34;4954792;28;20218;-46
2021/08/01 03:12:11;;;;;;;50.50;15.43;;;;;;;15.71;84.53;100932.41;4957073;28;20074;-47
2021/08/01 03:14:36;;;;;;;46.80;15.95;;;;;;;15.73;84.60;100935.03;4959408;28;20036;-46
2021/08/01 03:17:01;;;;;;;40.55;13.65;;;;;;;15.72;84.60;100928.91;4957425;28;20069;-48
2021/08/01 03:19:27;;;;;;;41.72;13.80;;;;;;;15.67;84.49;100928.06;4958247;28;20110;-47
2021/08/01 03:21:52;;;;;;;53.60;16.75;;;;;;;15.62;84.61;100924.56;4959143;28;20031;-48
2021/08/01 03:24:17;;;;;;;46.65;15.15;;;;;;;15.57;84.58;100923.72;4957031;28;20089;-48
2021/08/01 03:26:43;;;;;;;45.80;15.88;;;;;;;15.54;84.67;100933.41;4956690;28;20352;-48
2021/08/01 03:29:08;;;;;;;56.72;16.92;;;;;;;15.21;85.93;100935.28;4956236;28;20899;-47
2021/08/01 03:31:33;;;;;;;59.67;16.67;;;;;;;15.26;86.24;100936.13;4958318;28;20379;-49
2021/08/01 03:33:59;;;;;;;46.53;15.82;;;;;;;15.44;85.18;100943.91;4954846;28;20142;-49
2021/08/01 03:36:24;;;;;;;52.42;15.95;;;;;;;15.49;84.97;100937.78;4958681;28;20034;-50
2021/08/01 03:38:49;;;;;;;52.97;16.50;;;;;;;15.23;85.64;100941.41;4955586;28;20133;-47
2021/08/01 03:41:15;;;;;;;59.03;18.25;;;;;;;15.11;86.52;100936.19;4961865;28;20373;-50
2021/08/01 03:43:40;;;;;;;54.28;16.83;;;;;;;15.12;86.19;100937.09;4953064;28;20038;-49
2021/08/01 03:46:05;;;;;;;64.88;19.33;;;;;;;15.14;86.83;100940.56;4957124;28;20290;-47
2021/08/01 03:48:33;;;;;;;61.97;18.15;;;;;;;15.17;86.69;100941.44;4959751;28;20038;-47
2021/08/01 03:50:58;;;;;;;66.88;19.88;;;;;;;15.21;87.01;100939.66;4955160;28;20420;-49
2021/08/01 03:53:24;;;;;;;69.15;20.52;;;;;;;15.23;87.09;100938.78;4958483;28;20098;-48
2021/08/01 03:55:49;;;;;;;60.17;20.00;;;;;;;15.38;86.91;100941.31;4956880;28;20031;-47
2021/08/01 03:58:14;;;;;;;68.10;21.13;;;;;;;15.30;86.86;100945.75;4960028;28;20023;-47
2021/08/01 04:00:45;;;;;;;73.53;21.13;;;;;;;15.32;87.03;100945.72;4954679;28;20035;-49
2021/08/01 04:03:11;;;;;;;65.10;21.02;;;;;;;15.41;86.66;100945.69;4954793;28;20443;-48
2021/08/01 04:05:37;;;;;;;72.43;20.80;;;;;;;15.37;87.14;100942.19;4950748;28;21111;-47
2021/08/01 04:08:03;;;;;;;72.20;20.52;;;;;;;15.37;86.89;100941.31;4956958;28;20035;-47
2021/08/01 04:10:28;;;;;;;73.45;21.13;;;;;;;15.35;87.21;100938.72;4958889;28;20030;-50
2021/08/01 04:12:53;;;;;;;66.47;19.52;;;;;;;15.46;86.95;100956.16;4953750;28;20129;-50
2021/08/01 04:15:19;;;;;;;60.17;19.38;;;;;;;15.52;86.85;100943.00;4956407;28;20399;-48
2021/08/01 04:17:44;;;;;;;62.47;20.30;;;;;;;15.55;86.65;100945.66;4957703;28;20522;-52
2021/08/01 04:20:10;;;;;;;67.28;21.05;;;;;;;15.54;87.10;100952.66;4954540;28;20785;-48
2021/08/01 04:22:36;;;;;;;63.30;20.92;;;;;;;15.59;87.06;100952.63;4956756;28;20510;-50
2021/08/01 04:25:01;;;;;;;66.47;22.05;;;;;;;15.65;87.15;100950.84;4953433;28;20026;-47
2021/08/01 04:27:26;;;;;;;74.70;20.58;;;;;;;15.61;87.42;100949.13;4960622;28;20046;-46
2021/08/01 04:29:51;;;;;;;72.63;21.45;;;;;;;15.76;87.00;100945.50;4955361;28;20106;-46
2021/08/01 04:32:17;;;;;;;59.55;19.58;;;;;;;15.90;86.95;100951.56;4953954;28;20043;-47
2021/08/01 04:34:42;;;;;;;67.40;20.50;;;;;;;15.94;86.44;100949.75;4950424;28;20035;-46
2021/08/01 04:37:07;;;;;;;63.30;21.40;;;;;;;16.07;86.10;100944.41;4956176;28;20054;-46
2021/08/01 04:39:33;;;;;;;60.95;20.50;;;;;;;16.09;86.06;100945.28;4954335;28;20142;-46
2021/08/01 04:41:59;;;;;;;66.90;19.73;;;;;;;16.17;85.78;100948.69;4951741;28;20098;-47
2021/08/01 04:44:24;;;;;;;53.38;19.85;;;;;;;16.15;85.35;100950.50;4958623;28;20038;-50
2021/08/01 04:46:50;;;;;;;51.88;19.27;;;;;;;16.09;85.67;100953.16;4953969;28;20451;-46
2021/08/01 04:49:15;;;;;;;55.90;19.33;;;;;;;16.09;85.66;100947.91;4955507;28;20035;-48
2021/08/01 04:51:40;;;;;;;67.28;21.20;;;;;;;15.99;85.88;100948.84;4954926;28;20023;-47
2021/08/01 04:54:06;;;;;;;64.07;21.20;;;;;;;16.20;85.06;100945.19;4955426;28;20073;-47
2021/08/01 04:56:31;;;;;;;67.32;21.48;;;;;;;16.25;84.98;100946.00;4957497;28;20121;-47
2021/08/01 04:58:56;;;;;;;60.90;20.42;;;;;;;16.36;84.31;100945.91;4951399;28;20632;-46
2021/08/01 05:01:21;;;;;;;68.10;21.30;;;;;;;16.39;84.47;100945.88;4958169;28;20054;-47
2021/08/01 05:03:47;;;;;;;68.85;21.27;;;;;;;16.31;84.94;100948.59;4951797;28;20041;-47
2021/08/01 05:06:12;;;;;;;63.45;21.35;;;;;;;16.33;84.97;100957.34;4957417;28;20201;-48
2021/08/01 05:08:38;;;;;;;64.93;21.73;;;;;;;16.37;85.01;100950.28;4956089;28;20481;-46
2021/08/01 05:11:03;;;;;;;65.93;21.70;;;;;;;16.45;84.95;100951.09;4959368;28;20038;-47
2021/08/01 05:13:29;;;;;;;49.70;17.40;;;;;;;16.51;85.00;100951.03;4952375;28;20033;-46
2021/08/01 05:15:54;;;;;;;58.72;20.58;;;;;;;16.57;84.59;100945.72;4958921;28;20027;-47
2021/08/01 05:18:20;;;;;;;55.63;20.55;;;;;;;16.53;84.56;100944.84;4958768;28;20039;-46
2021/08/01 05:20:46;;;;;;;56.08;21.00;;;;;;;16.59;84.53;100947.47;4957894;28;20031;-48
2021/08/01 05:23:12;;;;;;;59.78;20.90;;;;;;;16.62;84.54;100944.81;4951916;28;20034;-46
2021/08/01 05:25:37;;;;;;;50.55;19.73;;;;;;;16.57;84.21;100946.59;4952674;28;20051;-47
2021/08/01 05:28:03;;;;;;;50.20;19.88;;;;;;;16.63;84.31;100950.94;4955533;28;20033;-49
2021/08/01 05:30:29;;;;;;;49.67;19.95;;;;;;;16.67;83.85;100939.50;4954680;28;20442;-46
2021/08/01 05:32:54;;;;;;;49.47;19.90;;;;;;;16.73;83.84;100943.81;4953751;28;20530;-46
2021/08/01 05:35:20;;;;;;;47.60;18.90;;;;;;;16.67;84.38;100939.50;4959578;28;20077;-48
2021/08/01 05:37:45;;;;;;;42.55;18.80;;;;;;;16.65;84.14;100936.00;4952765;28;20371;-46
2021/08/01 05:40:11;;;;;;;46.22;18.55;;;;;;;16.64;84.13;100936.91;4958586;28;20500;-46
2021/08/01 05:42:39;;;;;;;41.38;18.15;;;;;;;16.73;83.61;100926.25;4952447;28;20031;-48
2021/08/01 05:45:05;;;;;;;40.25;17.85;;;;;;;16.78;83.33;100931.47;4956440;28;20137;-46
2021/08/01 05:47:31;;;;;;;37.05;16.70;;;;;;;17.04;82.71;100935.56;4949365;28;20042;-49
2021/08/01 05:49:57;;;;;;;40.08;18.42;;;;;;;17.11;82.24;100941.63;4956988;28;20565;-48
2021/08/01 05:52:22;;;;;;;39.67;17.17;;;;;;;17.13;82.27;100941.63;4953745;28;20023;-50
2021/08/01 05:54:48;;;;;;;41.70;17.33;;;;;;;17.30;82.34;100940.50;4954262;28;20033;-48
2021/08/01 05:57:13;;;;;;;29.85;16.40;;;;;;;17.64;81.44;100943.56;4958046;28;20462;-49
2021/08/01 05:59:38;;;;;;;29.70;15.30;;;;;;;17.93;81.09;100944.91;4955264;28;20035;-51
2021/08/01 06:02:04;;;;;;;30.25;16.20;;;;;;;18.07;80.02;100938.50;4953402;28;20069;-51
2021/08/01 06:04:29;;;;;;;31.60;16.17;;;;;;;18.22;79.76;100946.19;4953808;28;20019;-48
2021/08/01 06:06:54;;;;;;;37.30;17.08;;;;;;;18.47;79.56;100954.56;4954102;28;20491;-49
2021/08/01 06:09:20;;;;;;;29.45;15.73;;;;;;;18.68;78.88;100950.66;4957723;28;20034;-49
2021/08/01 06:11:45;;;;;;;31.88;16.33;;;;;;;18.52;78.69;100947.41;4954316;28;20632;-48
2021/08/01 06:14:11;;;;;;;32.17;17.85;;;;;;;18.45;79.62;100943.13;4957557;28;20517;-46
2021/08/01 06:16:36;;;;;;;33.60;16.98;;;;;;;18.55;79.44;100947.38;4953363;28;20037;-46
2021/08/01 06:19:02;;;;;;;31.27;17.75;;;;;;;18.84;78.87;100949.50;4953056;28;20027;-49
2021/08/01 06:21:28;;;;;;;31.55;18.10;;;;;;;19.33;76.20;100948.50;4953634;28;20038;-47
2021/08/01 06:23:53;;;;;;;30.38;18.05;;;;;;;19.65;75.84;100942.50;4952665;28;20485;-48
2021/08/01 06:26:21;;;;;;;32.92;19.77;;;;;;;19.67;75.54;100952.16;4957419;28;20427;-48
2021/08/01 06:28:47;;;;;;;36.45;19.83;;;;;;;19.77;75.16;100945.75;4955590;28;20078;-50
2021/08/01 06:31:13;;;;;;;37.40;20.27;;;;;;;19.80;75.75;100952.75;4954048;28;20646;-47
2021/08/01 06:33:39;;;;;;;36.03;21.23;;;;;;;20.17;74.91;100953.63;4954129;28;20547;-46
2021/08/01 06:36:08;;;;;;;36.15;21.55;;;;;;;20.24;73.09;100957.88;4955318;28;20328;-48
2021/08/01 06:38:35;;;;;;;35.67;21.40;;;;;;;20.23;73.09;100960.53;4953894;28;20089;-48
2021/08/01 06:41:01;;;;;;;39.40;21.75;;;;;;;19.97;72.98;100977.03;4954679;28;20070;-46
2021/08/01 06:43:27;;;;;;;43.30;21.67;;;;;;;19.57;75.23;100971.81;4952344;28;20446;-46
2021/08/01 06:45:52;;;;;;;67.13;24.17;;;;;;;19.07;77.27;100969.31;4953579;28;20109;-47
2021/08/01 06:48:18;;;;;;;50.80;24.23;;;;;;;18.63;78.36;100961.31;4970712;28;20050;-46
2021/08/01 06:50:43;;;;;;;49.33;23.30;;;;;;;18.38;79.14;100965.25;4952762;28;20070;-47
2021/08/01 06:53:08;;;;;;;47.67;23.90;;;;;;;18.27;79.78;100967.22;4952831;28;20831;-46
2021/08/01 06:55:34;;;;;;;39.53;20.25;;;;;;;18.07;80.27;100969.28;4951329;28;20031;-48
2021/08/01 06:57:59;;;;;;;44.42;20.83;;;;;;;17.81;80.86;100977.59;4953493;28;20117;-45
2021/08/01 07:00:25;;;;;;;33.38;16.38;;;;;;;17.57;81.37;100978.78;4952688;28;20030;-47
2021/08/01 07:02:57;;;;;;;32.63;15.32;;;;;;;17.39;81.64;100973.75;4959015;28;20014;-45
2021/08/01 07:05:24;;;;;;;31.17;15.02;;;;;;;17.15;82.68;100974.06;4973946;28;20034;-50
2021/08/01 07:07:50;;;;;;;19.65;12.55;;;;;;;16.95;82.85;100971.69;4959011;28;20037;-45
2021/08/01 07:10:16;;;;;;;26.75;14.27;;;;;;;17.00;83.29;100969.84;4970838;28;20027;-46
2021/08/01 07:12:41;;;;;;;25.02;14.20;;;;;;;16.93;83.15;100970.81;4955387;28;20086;-47
2021/08/01 07:15:15;;;;;;;26.58;13.85;;;;;;;16.95;83.79;100975.19;4959982;28;20031;-48
2021/08/01 07:17:41;;;;;;;28.77;16.35;;;;;;;16.95;84.35;100984.84;4951229;28;20093;-48
2021/08/01 07:20:11;;;;;;;38.22;18.65;;;;;;;17.00;84.52;100980.41;4959915;28;20042;-46
2021/08/01 07:22:37;;;;;;;43.15;20.27;;;;;;;17.11;85.05;100982.91;4956632;28;20125;-48
2021/08/01 07:25:03;;;;;;;42.72;20.48;;;;;;;17.25;85.14;100980.97;4958863;28;20479;-48
2021/08/01 07:27:29;;;;;;;39.92;19.55;;;;;;;17.34;84.87;100980.84;4969532;28;20043;-46
2021/08/01 07:29:54;;;;;;;28.50;17.55;;;;;;;17.38;84.31;100979.94;4954447;28;20038;-46
2021/08/01 07:32:20;;;;;;;28.38;15.02;;;;;;;17.41;84.24;100982.53;4957497;28;20035;-46
2021/08/01 07:34:45;;;;;;;25.25;14.48;;;;;;;17.12;84.69;100995.19;4950030;28;20110;-45
2021/08/01 07:37:10;;;;;;;28.10;15.90;;;;;;;16.90;86.20;100984.00;4958135;28;20037;-46
2021/08/01 07:39:36;;;;;;;27.63;15.02;;;;;;;17.46;84.73;100985.97;4958640;28;20386;-49
2021/08/01 07:42:01;;;;;;;24.23;14.02;;;;;;;17.72;83.77;100989.16;4954073;28;20074;-46
2021/08/01 07:44:29;;;;;;;22.17;14.30;;;;;;;17.92;83.40;100986.25;4960104;28;20117;-50
2021/08/01 07:46:54;;;;;;;23.38;13.88;;;;;;;17.98;83.15;100983.50;4955226;28;20023;-46
2021/08/01 07:49:19;;;;;;;23.85;13.35;;;;;;;18.10;82.74;100993.00;4959892;28;20026;-52
2021/08/01 07:51:45;;;;;;;18.77;12.73;;;;;;;18.14;82.45;100992.94;4954611;28;20046;-47
2021/08/01 07:54:10;;;;;;;19.55;12.82;;;;;;;18.21;81.22;100993.69;4943292;28;20113;-48
2021/08/01 07:56:36;;;;;;;19.75;13.25;;;;;;;18.24;81.66;100991.88;4954056;28;20058;-52
2021/08/01 07:59:01;;;;;;;20.05;13.25;;;;;;;18.22;82.06;100985.78;4955060;28;20111;-49
2021/08/01 08:01:26;;;;;;;18.95;12.80;;;;;;;18.27;82.09;100985.69;4951820;28;20058;-49
2021/08/01 08:03:52;;;;;;;17.20;11.70;;;;;;;18.35;82.12;100993.50;4958132;28;20046;-45
2021/08/01 08:06:17;;;;;;;19.17;13.07;;;;;;;18.41;82.13;100991.63;4957001;28;20926;-47
2021/08/01 08:08:42;;;;;;;19.33;12.98;;;;;;;18.35;81.36;100983.81;4954867;28;20077;-47
2021/08/01 08:11:08;;;;;;;18.05;11.48;;;;;;;18.42;81.66;100992.50;4959565;28;20041;-47
2021/08/01 08:13:33;;;;;;;16.80;11.02;;;;;;;18.59;81.06;100995.75;4942015;28;20328;-47
2021/08/01 08:15:58;;;;;;;16.67;11.52;;;;;;;18.58;80.71;100997.50;4954250;28;20129;-49
2021/08/01 08:18:24;;;;;;;16.60;11.05;;;;;;;18.55;81.51;100994.03;4956874;28;20209;-46
2021/08/01 08:20:49;;;;;;;15.48;10.10;;;;;;;18.66;80.30;100993.88;4953203;28;20031;-47
2021/08/01 08:23:15;;;;;;;14.10;9.48;;;;;;;18.68;78.86;101002.59;4955580;28;20069;-47
2021/08/01 08:25:44;;;;;;;17.15;10.48;;;;;;;18.69;80.09;101007.00;4952737;28;20050;-49
2021/08/01 08:28:09;;;;;;;13.75;10.18;;;;;;;18.80;79.56;101005.91;4956269;28;20069;-49
2021/08/01 08:30:35;;;;;;;18.50;11.30;;;;;;;18.74;79.35;101008.66;4970879;28;20539;-47
2021/08/01 08:33:00;;;;;;;19.25;11.40;;;;;;;18.69;80.73;101012.28;4954807;28;20142;-48
2021/08/01 08:35:27;;;;;;;15.98;10.98;;;;;;;18.88;79.58;101021.63;4954760;28;20133;-52
2021/08/01 08:37:53;;;;;;;16.38;11.85;;;;;;;19.02;80.13;101017.84;4954818;28;20113;-47
2021/08/01 08:40:19;;;;;;;15.73;10.52;;;;;;;19.16;79.76;101022.84;4957158;28;20054;-48
2021/08/01 08:42:45;;;;;;;15.00;10.38;;;;;;;19.29;79.07;101019.06;4950918;28;20038;-50
2021/08/01 08:45:14;;;;;;;14.38;10.05;;;;;;;19.66;79.60;101020.97;4958912;28;20073;-47
2021/08/01 08:47:40;;;;;;;14.27;9.40;;;;;;;19.96;77.30;101017.63;4951351;28;20045;-47
2021/08/01 08:50:07;;;;;;;12.40;8.82;;;;;;;20.02;76.68;101014.84;4954964;28;20048;-47
2021/08/01 08:52:32;;;;;;;9.80;7.90;;;;;;;20.28;76.32;101014.25;4955995;28;20045;-47
2021/08/01 08:55:00;;;;;;;11.02;7.13;;;;;;;20.34;75.92;101019.41;4955761;28;20039;-46
2021/08/01 08:57:31;;;;;;;10.93;7.70;;;;;;;20.54;74.99;101016.28;4945050;28;20077;-46
2021/08/01 09:00:08;;;;;;;11.30;6.80;;;;;;;20.64;73.12;101026.59;4951051;28;20042;-51
2021/08/01 09:02:36;;;;;;;10.52;7.40;;;;;;;21.03;73.83;101022.03;4953671;28;20030;-48
2021/08/01 09:05:03;;;;;;;10.70;6.70;;;;;;;21.53;72.81;101017.09;4956563;28;20035;-48
2021/08/01 09:07:29;;;;;;;9.82;6.80;;;;;;;22.17;73.57;101015.16;4965160;28;20464;-47
2021/08/01 09:09:54;;;;;;;8.27;5.45;;;;;;;22.61;69.72;101019.88;4954921;28;20370;-47
2021/08/01 09:12:20;;;;;;;7.28;5.65;;;;;;;22.40;68.71;101015.28;4954782;28;20585;-49
2021/08/01 09:14:46;;;;;;;9.00;5.93;;;;;;;22.42;69.74;101013.44;4956558;28;20109;-47
2021/08/01 09:17:11;;;;;;;10.00;5.80;;;;;;;22.49;67.99;101020.31;4956641;28;20030;-47
2021/08/01 09:19:49;;;;;;;9.23;6.40;;;;;;;22.34;68.73;101025.22;4956254;28;20034;-48
2021/08/01 09:22:22;;;;;;;8.23;5.63;;;;;;;21.83;68.43;101024.13;4950237;28;20465;-48
2021/08/01 09:24:50;;;;;;;10.95;6.70;;;;;;;21.29;68.74;101029.28;4954965;28;20126;-47
2021/08/01 09:27:45;;;;;;;10.48;7.00;;;;;;;20.89;70.02;101029.47;4955290;28;20495;-46
2021/08/01 09:30:10;;;;;;;10.55;7.13;;;;;;;20.64;71.65;101029.25;4954936;28;20071;-47
2021/08/01 09:32:49;;;;;;;9.55;6.78;;;;;;;20.54;72.07;101029.53;4967025;28;20444;-46
2021/08/01 09:35:21;;;;;;;11.80;7.45;;;;;;;20.90;73.98;101027.72;4956297;28;20050;-48
2021/08/01 09:37:59;;;;;;;9.35;7.05;;;;;;;21.39;73.49;101028.13;4951953;28;20122;-47
2021/08/01 09:40:29;;;;;;;8.63;6.50;;;;;;;21.90;72.94;101021.28;4956464;28;20030;-46
2021/08/01 09:43:05;;;;;;;12.27;8.23;;;;;;;22.27;67.89;101025.44;4952123;28;20431;-48
2021/08/01 09:45:30;;;;;;;14.27;9.63;;;;;;;22.49;68.82;101025.63;4952457;28;20054;-51
2021/08/01 09:48:19;;;;;;;8.48;6.90;;;;;;;22.98;66.31;101035.47;4954969;28;20031;-47
2021/08/01 09:50:58;;;;;;;7.68;5.72;;;;;;;22.89;65.05;101038.44;4953586;28;20030;-49
2021/08/01 09:53:24;;;;;;;7.72;5.22;;;;;;;22.69;65.17;101040.88;4946178;28;20335;-49
2021/08/01 09:56:15;;;;;;;7.47;5.40;;;;;;;23.07;67.05;101039.56;4955631;28;20019;-51
2021/08/01 09:58:41;;;;;;;9.48;4.65;;;;;;;23.34;62.88;101041.25;4955554;28;20041;-48
2021/08/01 10:01:07;;;;;;;5.88;4.78;;;;;;;23.14;61.72;101042.88;4953439;28;20035;-49
2021/08/01 10:03:42;;;;;;;6.97;5.60;;;;;;;22.84;63.40;101050.16;4954571;28;20095;-50
2021/08/01 10:06:14;;;;;;;7.30;5.80;;;;;;;22.72;64.17;101045.22;4955514;28;20037;-51
2021/08/01 10:08:44;;;;;;;8.27;6.10;;;;;;;22.86;63.30;101043.88;4953052;28;20160;-47
2021/08/01 10:11:13;;;;;;;7.13;5.90;;;;;;;22.94;62.95;101039.13;4957073;28;20589;-47
2021/08/01 10:13:39;;;;;;;9.43;5.97;;;;;;;22.90;62.55;101042.84;4950136;28;20169;-46
2021/08/01 10:16:06;;;;;;;8.50;5.72;;;;;;;22.64;62.02;101041.03;4956460;28;20034;-51
2021/08/01 10:18:32;;;;;;;9.75;6.15;;;;;;;22.65;62.94;101033.91;4950993;28;20034;-48
2021/08/01 10:20:57;;;;;;;7.50;5.63;;;;;;;22.62;65.16;101042.03;4955830;28;20502;-48
2021/08/01 10:23:25;;;;;;;8.70;5.18;;;;;;;22.95;63.87;101040.00;4952019;28;20398;-46
2021/08/01 10:25:50;;;;;;;10.45;5.18;;;;;;;23.02;60.94;101042.41;4952430;28;20073;-49
2021/08/01 10:28:22;;;;;;;6.95;4.82;;;;;;;22.99;61.10;101041.66;4954463;28;20105;-46
2021/08/01 10:30:49;;;;;;;6.60;4.03;;;;;;;23.24;60.68;101036.31;4952341;28;20950;-45
2021/08/01 10:33:18;;;;;;;6.03;4.18;;;;;;;23.29;61.76;101042.34;4955659;28;20166;-53
2021/08/01 10:35:52;;;;;;;5.38;4.10;;;;;;;23.54;59.84;101042.34;4955545;28;20042;-49
2021/08/01 10:38:17;;;;;;;;;;;;;;;23.55;60.00;101049.38;4972289;28;20031;-49
2021/08/01 10:40:42;;;;;;;5.40;3.92;;;;;;;23.54;59.76;101043.22;4970549;28;20436;-49
2021/08/01 10:43:11;;;;;;;5.28;3.97;;;;;;;23.56;58.34;101051.13;4956892;28;20031;-48
2021/08/01 10:45:37;;;;;;;4.72;3.70;;;;;;;23.39;59.21;101047.28;4957268;28;20058;-48
2021/08/01 10:48:03;;;;;;;5.97;4.30;;;;;;;23.39;61.11;101055.25;4958951;28;20142;-48
2021/08/01 10:50:30;;;;;;;5.97;3.80;;;;;;;23.37;59.19;101049.09;4958934;28;20027;-48
2021/08/01 10:53:21;;;;;;;6.82;3.58;;;;;;;23.75;58.93;101046.84;4955631;28;20475;-46
2021/08/01 10:55:47;;;;;;;5.40;3.72;;;;;;;24.12;57.58;101044.47;4958307;28;20312;-46
2021/08/01 10:58:14;;;;;;;5.10;3.00;;;;;;;24.46;56.33;101038.69;4958127;28;20081;-46
2021/08/01 11:00:54;;;;;;;5.40;2.88;;;;;;;24.55;56.52;101048.97;4972831;28;20098;-47
2021/08/01 11:03:20;;;;;;;4.75;2.90;;;;;;;24.58;55.66;101051.50;4953242;28;20035;-51
2021/08/01 11:05:46;;;;;;;5.80;2.88;;;;;;;24.36;53.98;101050.66;4956549;28;20431;-46
2021/08/01 11:08:11;;;;;;;4.50;2.78;;;;;;;24.27;56.63;101047.50;4961361;28;20035;-49
2021/08/01 11:10:38;;;;;;;3.65;2.58;;;;;;;24.51;55.05;101060.69;4955389;28;20551;-47
2021/08/01 11:13:28;;;;;;;4.95;3.08;;;;;;;24.55;53.79;101054.31;4957644;28;20033;-46
2021/08/01 11:15:56;;;;;;;4.45;2.65;;;;;;;24.63;53.46;101054.88;4957134;28;20041;-45